sensor_id;sensor_type;location;lat;lon;timestamp;temperature;humidity
43665;DHT22;29263;48.172;11.484;2023-08-08T00:01:28;12.50;99.90
43665;DHT22;29263;48.172;11.484;2023-08-08T00:03:53;12.50;99.90
43665;DHT22;29263;48.172;11.484;2023-08-08T00:06:19;12.50;99.90
43665;DHT22;29263;48.172;11.484;2023-08-08T00:08:44;12.50;99.90
43665;DHT22;29263;48.172;11.484;2023-08-08T00:11:10;12.50;99.90
43665;DHT22;29263;48.172;11.484;2023-08-08T00:13:36;12.50;99.90
43665;DHT22;29263;48.172;11.484;2023-08-08T00:16:01;12.60;99.90
43665;DHT22;29263;48.172;11.484;2023-08-08T00:18:28;12.50;99.90
43665;DHT22;29263;48.172;11.484;2023-08-08T00:20:54;12.60;99.90
43665;DHT22;29263;48.172;11.484;2023-08-08T00:23:19;12.60;99.90
43665;DHT22;29263;48.172;11.484;2023-08-08T00:25:45;12.60;99.90
43665;DHT22;29263;48.172;11.484;2023-08-08T00:28:15;12.60;99.90
43665;DHT22;29263;48.172;11.484;2023-08-08T00:30:41;12.60;99.90
43665;DHT22;29263;48.172;11.484;2023-08-08T00:33:06;12.60;99.90
43665;DHT22;29263;48.172;11.484;2023-08-08T00:35:32;12.60;99.90
43665;DHT22;29263;48.172;11.484;2023-08-08T00:37:57;12.60;99.90
43665;DHT22;29263;48.172;11.484;2023-08-08T00:40:23;12.60;99.90
43665;DHT22;29263;48.172;11.484;2023-08-08T00:42:49;12.70;99.90
43665;DHT22;29263;48.172;11.484;2023-08-08T00:45:14;12.70;99.90
43665;DHT22;29263;48.172;11.484;2023-08-08T00:47:40;12.60;99.90
43665;DHT22;29263;48.172;11.484;2023-08-08T00:50:06;12.60;99.90
43665;DHT22;29263;48.172;11.484;2023-08-08T00:52:32;12.70;99.90
43665;DHT22;29263;48.172;11.484;2023-08-08T00:54:58;12.60;99.90
43665;DHT22;29263;48.172;11.484;2023-08-08T00:57:25;12.60;99.90
43665;DHT22;29263;48.172;11.484;2023-08-08T00:59:51;12.60;99.90
43665;DHT22;29263;48.172;11.484;2023-08-08T01:02:17;12.70;99.90
43665;DHT22;29263;48.172;11.484;2023-08-08T01:04:42;12.70;99.90
43665;DHT22;29263;48.172;11.484;2023-08-08T01:07:29;12.70;99.90
43665;DHT22;29263;48.172;11.484;2023-08-08T01:09:59;12.70;99.90
43665;DHT22;29263;48.172;11.484;2023-08-08T01:12:33;12.60;99.90
43665;DHT22;29263;48.172;11.484;2023-08-08T01:15:01;12.60;99.90
43665;DHT22;29263;48.172;11.484;2023-08-08T01:17:27;12.60;99.90
43665;DHT22;29263;48.172;11.484;2023-08-08T01:19:52;12.60;99.90
43665;DHT22;29263;48.172;11.484;2023-08-08T01:22:30;12.60;99.90
43665;DHT22;29263;48.172;11.484;2023-08-08T01:24:58;12.50;99.90
43665;DHT22;29263;48.172;11.484;2023-08-08T01:27:24;12.50;99.90
43665;DHT22;29263;48.172;11.484;2023-08-08T01:29:50;12.50;99.90
43665;DHT22;29263;48.172;11.484;2023-08-08T01:32:16;12.50;99.90
43665;DHT22;29263;48.172;11.484;2023-08-08T01:34:42;12.40;99.90
43665;DHT22;29263;48.172;11.484;2023-08-08T01:37:18;12.40;99.90
43665;DHT22;29263;48.172;11.484;2023-08-08T01:39:46;12.40;99.90
43665;DHT22;29263;48.172;11.484;2023-08-08T01:42:14;12.30;99.90
43665;DHT22;29263;48.172;11.484;2023-08-08T01:44:41;12.30;99.90
43665;DHT22;29263;48.172;11.484;2023-08-08T01:47:08;12.20;99.90
43665;DHT22;29263;48.172;11.484;2023-08-08T01:49:34;12.20;99.90
43665;DHT22;29263;48.172;11.484;2023-08-08T01:51:59;12.20;99.90
43665;DHT22;29263;48.172;11.484;2023-08-08T01:54:25;12.10;99.90
43665;DHT22;29263;48.172;11.484;2023-08-08T01:56:51;12.10;99.90
43665;DHT22;29263;48.172;11.484;2023-08-08T01:59:16;12.00;99.90
43665;DHT22;29263;48.172;11.484;2023-08-08T02:01:42;12.00;99.90
43665;DHT22;29263;48.172;11.484;2023-08-08T02:04:07;12.00;99.90
43665;DHT22;29263;48.172;11.484;2023-08-08T02:06:33;11.90;99.90
43665;DHT22;29263;48.172;11.484;2023-08-08T02:08:58;11.90;99.90
43665;DHT22;29263;48.172;11.484;2023-08-08T02:11:24;11.80;99.90
43665;DHT22;29263;48.172;11.484;2023-08-08T02:13:50;11.80;99.90
43665;DHT22;29263;48.172;11.484;2023-08-08T02:16:15;11.80;99.90
43665;DHT22;29263;48.172;11.484;2023-08-08T02:18:41;11.80;99.90
43665;DHT22;29263;48.172;11.484;2023-08-08T02:21:07;11.80;99.90
43665;DHT22;29263;48.172;11.484;2023-08-08T02:23:33;11.70;99.90
43665;DHT22;29263;48.172;11.484;2023-08-08T02:25:59;11.70;99.90
43665;DHT22;29263;48.172;11.484;2023-08-08T02:28:25;11.70;99.90
43665;DHT22;29263;48.172;11.484;2023-08-08T02:30:50;11.70;99.90
43665;DHT22;29263;48.172;11.484;2023-08-08T02:33:16;11.70;99.90
43665;DHT22;29263;48.172;11.484;2023-08-08T02:35:41;11.70;99.90
43665;DHT22;29263;48.172;11.484;2023-08-08T02:38:07;11.70;99.90
43665;DHT22;29263;48.172;11.484;2023-08-08T02:40:33;11.60;99.90
43665;DHT22;29263;48.172;11.484;2023-08-08T02:42:59;11.60;99.90
43665;DHT22;29263;48.172;11.484;2023-08-08T02:45:24;11.60;99.90
43665;DHT22;29263;48.172;11.484;2023-08-08T02:47:50;11.50;99.90
43665;DHT22;29263;48.172;11.484;2023-08-08T02:50:16;11.50;99.90
43665;DHT22;29263;48.172;11.484;2023-08-08T02:52:42;11.50;99.90
43665;DHT22;29263;48.172;11.484;2023-08-08T02:55:08;11.50;99.90
43665;DHT22;29263;48.172;11.484;2023-08-08T02:57:33;11.50;99.90
43665;DHT22;29263;48.172;11.484;2023-08-08T02:59:59;11.40;99.90
43665;DHT22;29263;48.172;11.484;2023-08-08T03:02:25;11.40;99.90
43665;DHT22;29263;48.172;11.484;2023-08-08T03:04:51;11.30;99.90
43665;DHT22;29263;48.172;11.484;2023-08-08T03:07:16;11.30;99.90
43665;DHT22;29263;48.172;11.484;2023-08-08T03:09:42;11.30;99.90
43665;DHT22;29263;48.172;11.484;2023-08-08T03:12:08;11.20;99.90
43665;DHT22;29263;48.172;11.484;2023-08-08T03:14:33;11.20;99.90
43665;DHT22;29263;48.172;11.484;2023-08-08T03:16:59;11.10;99.90
43665;DHT22;29263;48.172;11.484;2023-08-08T03:19:26;11.20;99.90
43665;DHT22;29263;48.172;11.484;2023-08-08T03:21:51;11.20;99.90
43665;DHT22;29263;48.172;11.484;2023-08-08T03:24:17;11.20;99.90
43665;DHT22;29263;48.172;11.484;2023-08-08T03:26:42;11.20;99.90
43665;DHT22;29263;48.172;11.484;2023-08-08T03:29:08;11.20;99.90
43665;DHT22;29263;48.172;11.484;2023-08-08T03:31:36;11.20;99.90
43665;DHT22;29263;48.172;11.484;2023-08-08T03:34:01;11.20;99.90
43665;DHT22;29263;48.172;11.484;2023-08-08T03:36:27;11.30;99.90
43665;DHT22;29263;48.172;11.484;2023-08-08T03:38:53;11.30;99.90
43665;DHT22;29263;48.172;11.484;2023-08-08T03:41:18;11.30;99.90
43665;DHT22;29263;48.172;11.484;2023-08-08T03:43:44;11.30;99.90
43665;DHT22;29263;48.172;11.484;2023-08-08T03:46:10;11.30;99.90
43665;DHT22;29263;48.172;11.484;2023-08-08T03:48:37;11.30;99.90
43665;DHT22;29263;48.172;11.484;2023-08-08T03:51:03;11.30;99.90
43665;DHT22;29263;48.172;11.484;2023-08-08T03:53:29;11.30;99.90
43665;DHT22;29263;48.172;11.484;2023-08-08T03:55:55;11.40;99.90
43665;DHT22;29263;48.172;11.484;2023-08-08T03:58:20;11.40;99.90
43665;DHT22;29263;48.172;11.484;2023-08-08T04:00:46;11.40;99.90
43665;DHT22;29263;48.172;11.484;2023-08-08T04:03:13;11.40;99.90
43665;DHT22;29263;48.172;11.484;2023-08-08T04:05:40;11.40;99.90
43665;DHT22;29263;48.172;11.484;2023-08-08T04:08:06;11.40;99.90
43665;DHT22;29263;48.172;11.484;2023-08-08T04:10:32;11.40;99.90
43665;DHT22;29263;48.172;11.484;2023-08-08T04:12:57;11.40;99.90
43665;DHT22;29263;48.172;11.484;2023-08-08T04:15:23;11.50;99.90
43665;DHT22;29263;48.172;11.484;2023-08-08T04:17:48;11.50;99.90
43665;DHT22;29263;48.172;11.484;2023-08-08T04:20:14;11.50;99.90
43665;DHT22;29263;48.172;11.484;2023-08-08T04:22:40;11.50;99.90
43665;DHT22;29263;48.172;11.484;2023-08-08T04:25:06;11.50;99.90
43665;DHT22;29263;48.172;11.484;2023-08-08T04:27:32;11.50;99.90
43665;DHT22;29263;48.172;11.484;2023-08-08T04:29:57;11.60;99.90
43665;DHT22;29263;48.172;11.484;2023-08-08T04:32:23;11.60;99.90
43665;DHT22;29263;48.172;11.484;2023-08-08T04:34:48;11.60;99.90
43665;DHT22;29263;48.172;11.484;2023-08-08T04:37:14;11.60;99.90
43665;DHT22;29263;48.172;11.484;2023-08-08T04:39:39;11.60;99.90
43665;DHT22;29263;48.172;11.484;2023-08-08T04:42:05;11.70;99.90
43665;DHT22;29263;48.172;11.484;2023-08-08T04:44:31;11.70;99.90
43665;DHT22;29263;48.172;11.484;2023-08-08T04:46:57;11.80;99.90
43665;DHT22;29263;48.172;11.484;2023-08-08T04:49:22;11.80;99.90
43665;DHT22;29263;48.172;11.484;2023-08-08T04:51:48;11.90;99.90
43665;DHT22;29263;48.172;11.484;2023-08-08T04:54:14;11.90;99.90
43665;DHT22;29263;48.172;11.484;2023-08-08T04:56:39;12.00;99.90
43665;DHT22;29263;48.172;11.484;2023-08-08T04:59:05;12.00;99.90
43665;DHT22;29263;48.172;11.484;2023-08-08T05:01:30;12.00;99.90
43665;DHT22;29263;48.172;11.484;2023-08-08T05:03:56;12.10;99.90
43665;DHT22;29263;48.172;11.484;2023-08-08T05:06:21;12.10;99.90
43665;DHT22;29263;48.172;11.484;2023-08-08T05:08:51;12.20;99.90
43665;DHT22;29263;48.172;11.484;2023-08-08T05:11:17;12.20;99.90
43665;DHT22;29263;48.172;11.484;2023-08-08T05:13:43;12.30;99.90
43665;DHT22;29263;48.172;11.484;2023-08-08T05:16:08;12.30;99.90
43665;DHT22;29263;48.172;11.484;2023-08-08T05:18:34;12.40;99.90
43665;DHT22;29263;48.172;11.484;2023-08-08T05:20:59;12.40;99.90
43665;DHT22;29263;48.172;11.484;2023-08-08T05:23:25;12.50;99.90
43665;DHT22;29263;48.172;11.484;2023-08-08T05:25:51;12.50;99.90
43665;DHT22;29263;48.172;11.484;2023-08-08T05:28:16;12.50;99.90
43665;DHT22;29263;48.172;11.484;2023-08-08T05:30:42;12.60;99.90
43665;DHT22;29263;48.172;11.484;2023-08-08T05:33:07;12.60;99.90
43665;DHT22;29263;48.172;11.484;2023-08-08T05:35:33;12.60;99.90
43665;DHT22;29263;48.172;11.484;2023-08-08T05:37:59;12.70;99.90
43665;DHT22;29263;48.172;11.484;2023-08-08T05:40:24;12.70;99.90
43665;DHT22;29263;48.172;11.484;2023-08-08T05:42:50;12.80;99.90
43665;DHT22;29263;48.172;11.484;2023-08-08T05:45:15;12.90;99.90
43665;DHT22;29263;48.172;11.484;2023-08-08T05:47:41;12.90;99.90
43665;DHT22;29263;48.172;11.484;2023-08-08T05:50:07;13.00;99.90
43665;DHT22;29263;48.172;11.484;2023-08-08T05:52:32;13.10;99.90
43665;DHT22;29263;48.172;11.484;2023-08-08T05:54:58;13.20;99.90
43665;DHT22;29263;48.172;11.484;2023-08-08T05:57:25;13.30;99.90
43665;DHT22;29263;48.172;11.484;2023-08-08T05:59:51;13.40;99.90
43665;DHT22;29263;48.172;11.484;2023-08-08T06:02:17;13.60;99.90
43665;DHT22;29263;48.172;11.484;2023-08-08T06:04:42;13.70;99.90
43665;DHT22;29263;48.172;11.484;2023-08-08T06:07:08;13.90;99.90
43665;DHT22;29263;48.172;11.484;2023-08-08T06:09:35;14.00;99.90
43665;DHT22;29263;48.172;11.484;2023-08-08T06:12:02;14.10;99.90
43665;DHT22;29263;48.172;11.484;2023-08-08T06:14:35;14.10;99.90
43665;DHT22;29263;48.172;11.484;2023-08-08T06:17:03;14.20;99.90
43665;DHT22;29263;48.172;11.484;2023-08-08T06:19:29;14.30;99.90
43665;DHT22;29263;48.172;11.484;2023-08-08T06:21:57;14.50;99.90
43665;DHT22;29263;48.172;11.484;2023-08-08T06:24:23;14.60;99.90
43665;DHT22;29263;48.172;11.484;2023-08-08T06:27:12;14.70;99.90
43665;DHT22;29263;48.172;11.484;2023-08-08T06:29:43;14.80;99.90
43665;DHT22;29263;48.172;11.484;2023-08-08T06:32:08;14.90;99.90
43665;DHT22;29263;48.172;11.484;2023-08-08T06:34:37;15.00;99.90
43665;DHT22;29263;48.172;11.484;2023-08-08T06:37:03;15.10;99.90
43665;DHT22;29263;48.172;11.484;2023-08-08T06:39:29;15.20;99.90
43665;DHT22;29263;48.172;11.484;2023-08-08T06:41:55;15.30;99.90
43665;DHT22;29263;48.172;11.484;2023-08-08T06:44:28;15.20;99.90
43665;DHT22;29263;48.172;11.484;2023-08-08T06:46:54;15.20;99.90
43665;DHT22;29263;48.172;11.484;2023-08-08T06:49:20;15.20;99.90
43665;DHT22;29263;48.172;11.484;2023-08-08T06:51:46;15.30;99.90
43665;DHT22;29263;48.172;11.484;2023-08-08T06:54:12;15.40;99.90
43665;DHT22;29263;48.172;11.484;2023-08-08T06:56:37;15.40;99.90
43665;DHT22;29263;48.172;11.484;2023-08-08T06:59:03;15.60;99.90
43665;DHT22;29263;48.172;11.484;2023-08-08T07:01:28;15.70;99.90
43665;DHT22;29263;48.172;11.484;2023-08-08T07:03:55;15.80;99.90
43665;DHT22;29263;48.172;11.484;2023-08-08T07:06:20;15.90;99.90
43665;DHT22;29263;48.172;11.484;2023-08-08T07:08:46;16.10;98.60
43665;DHT22;29263;48.172;11.484;2023-08-08T07:11:12;16.20;97.60
43665;DHT22;29263;48.172;11.484;2023-08-08T07:13:37;16.40;97.00
43665;DHT22;29263;48.172;11.484;2023-08-08T07:16:03;16.60;98.40
43665;DHT22;29263;48.172;11.484;2023-08-08T07:18:28;16.60;97.80
43665;DHT22;29263;48.172;11.484;2023-08-08T07:20:54;16.70;98.00
43665;DHT22;29263;48.172;11.484;2023-08-08T07:23:22;16.80;97.10
43665;DHT22;29263;48.172;11.484;2023-08-08T07:25:54;17.00;96.40
43665;DHT22;29263;48.172;11.484;2023-08-08T07:28:19;17.10;96.20
43665;DHT22;29263;48.172;11.484;2023-08-08T07:30:45;17.20;95.70
43665;DHT22;29263;48.172;11.484;2023-08-08T07:33:11;17.40;95.30
43665;DHT22;29263;48.172;11.484;2023-08-08T07:35:36;17.50;96.50
43665;DHT22;29263;48.172;11.484;2023-08-08T07:38:02;17.50;94.20
43665;DHT22;29263;48.172;11.484;2023-08-08T07:40:28;17.60;94.10
43665;DHT22;29263;48.172;11.484;2023-08-08T07:42:53;17.60;93.00
43665;DHT22;29263;48.172;11.484;2023-08-08T07:45:19;17.70;94.30
43665;DHT22;29263;48.172;11.484;2023-08-08T07:47:45;17.80;94.90
43665;DHT22;29263;48.172;11.484;2023-08-08T07:50:11;18.00;94.90
43665;DHT22;29263;48.172;11.484;2023-08-08T07:52:37;18.10;94.20
43665;DHT22;29263;48.172;11.484;2023-08-08T07:55:04;18.10;93.90
43665;DHT22;29263;48.172;11.484;2023-08-08T07:57:31;18.20;93.90
43665;DHT22;29263;48.172;11.484;2023-08-08T07:59:59;18.30;92.90
43665;DHT22;29263;48.172;11.484;2023-08-08T08:02:25;18.40;92.70
43665;DHT22;29263;48.172;11.484;2023-08-08T08:04:51;18.40;93.00
43665;DHT22;29263;48.172;11.484;2023-08-08T08:07:17;18.60;91.30
43665;DHT22;29263;48.172;11.484;2023-08-08T08:09:43;18.60;91.80
43665;DHT22;29263;48.172;11.484;2023-08-08T08:12:09;18.60;92.00
43665;DHT22;29263;48.172;11.484;2023-08-08T08:14:34;18.70;91.30
43665;DHT22;29263;48.172;11.484;2023-08-08T08:17:00;18.70;90.80
43665;DHT22;29263;48.172;11.484;2023-08-08T08:19:25;18.60;91.40
43665;DHT22;29263;48.172;11.484;2023-08-08T08:21:51;18.80;90.80
43665;DHT22;29263;48.172;11.484;2023-08-08T08:24:17;18.80;89.70
43665;DHT22;29263;48.172;11.484;2023-08-08T08:26:42;19.00;90.70
43665;DHT22;29263;48.172;11.484;2023-08-08T08:29:08;19.10;89.30
43665;DHT22;29263;48.172;11.484;2023-08-08T08:31:33;18.90;88.60
43665;DHT22;29263;48.172;11.484;2023-08-08T08:33:59;19.00;88.10
43665;DHT22;29263;48.172;11.484;2023-08-08T08:36:25;19.10;86.10
43665;DHT22;29263;48.172;11.484;2023-08-08T08:38:51;19.10;86.20
43665;DHT22;29263;48.172;11.484;2023-08-08T08:41:18;19.10;89.50
43665;DHT22;29263;48.172;11.484;2023-08-08T08:43:45;19.20;87.40
43665;DHT22;29263;48.172;11.484;2023-08-08T08:46:11;19.20;85.80
43665;DHT22;29263;48.172;11.484;2023-08-08T08:48:38;19.10;88.70
43665;DHT22;29263;48.172;11.484;2023-08-08T08:51:04;19.20;85.90
43665;DHT22;29263;48.172;11.484;2023-08-08T08:53:30;19.30;86.70
43665;DHT22;29263;48.172;11.484;2023-08-08T08:55:56;19.40;85.70
43665;DHT22;29263;48.172;11.484;2023-08-08T08:58:24;19.30;85.60
43665;DHT22;29263;48.172;11.484;2023-08-08T09:00:51;19.40;88.80
43665;DHT22;29263;48.172;11.484;2023-08-08T09:03:17;19.40;83.80
43665;DHT22;29263;48.172;11.484;2023-08-08T09:05:43;19.40;86.30
43665;DHT22;29263;48.172;11.484;2023-08-08T09:08:10;19.50;84.70
43665;DHT22;29263;48.172;11.484;2023-08-08T09:10:38;19.60;83.10
43665;DHT22;29263;48.172;11.484;2023-08-08T09:13:03;19.60;86.50
43665;DHT22;29263;48.172;11.484;2023-08-08T09:15:31;19.70;83.30
43665;DHT22;29263;48.172;11.484;2023-08-08T09:17:56;19.60;83.00
43665;DHT22;29263;48.172;11.484;2023-08-08T09:20:22;19.70;84.70
43665;DHT22;29263;48.172;11.484;2023-08-08T09:22:47;19.80;85.50
43665;DHT22;29263;48.172;11.484;2023-08-08T09:25:14;19.90;82.20
43665;DHT22;29263;48.172;11.484;2023-08-08T09:27:41;19.90;82.00
43665;DHT22;29263;48.172;11.484;2023-08-08T09:30:09;20.10;84.80
43665;DHT22;29263;48.172;11.484;2023-08-08T09:32:36;20.20;81.80
43665;DHT22;29263;48.172;11.484;2023-08-08T09:35:02;20.30;82.70
43665;DHT22;29263;48.172;11.484;2023-08-08T09:37:28;20.10;81.30
43665;DHT22;29263;48.172;11.484;2023-08-08T09:40:02;19.90;83.10
43665;DHT22;29263;48.172;11.484;2023-08-08T09:42:29;19.60;81.50
43665;DHT22;29263;48.172;11.484;2023-08-08T09:44:58;19.30;82.60
43665;DHT22;29263;48.172;11.484;2023-08-08T09:47:25;19.30;83.50
43665;DHT22;29263;48.172;11.484;2023-08-08T09:50:00;19.30;83.40
43665;DHT22;29263;48.172;11.484;2023-08-08T09:52:27;19.50;82.80
43665;DHT22;29263;48.172;11.484;2023-08-08T09:54:54;19.60;82.00
43665;DHT22;29263;48.172;11.484;2023-08-08T09:57:21;19.70;82.80
43665;DHT22;29263;48.172;11.484;2023-08-08T09:59:47;19.90;82.90
43665;DHT22;29263;48.172;11.484;2023-08-08T10:02:14;20.00;81.20
43665;DHT22;29263;48.172;11.484;2023-08-08T10:04:41;20.00;80.80
43665;DHT22;29263;48.172;11.484;2023-08-08T10:07:07;19.90;76.10
43665;DHT22;29263;48.172;11.484;2023-08-08T10:09:33;19.90;78.30
43665;DHT22;29263;48.172;11.484;2023-08-08T10:11:59;20.00;77.50
43665;DHT22;29263;48.172;11.484;2023-08-08T10:14:32;20.10;79.70
43665;DHT22;29263;48.172;11.484;2023-08-08T10:16:58;20.30;75.60
43665;DHT22;29263;48.172;11.484;2023-08-08T10:19:24;20.40;77.80
43665;DHT22;29263;48.172;11.484;2023-08-08T10:21:58;20.50;74.80
43665;DHT22;29263;48.172;11.484;2023-08-08T10:24:24;20.40;77.00
43665;DHT22;29263;48.172;11.484;2023-08-08T10:26:53;20.40;76.20
43665;DHT22;29263;48.172;11.484;2023-08-08T10:29:20;20.30;76.40
43665;DHT22;29263;48.172;11.484;2023-08-08T10:32:04;20.50;79.50
43665;DHT22;29263;48.172;11.484;2023-08-08T10:34:40;20.60;76.90
43665;DHT22;29263;48.172;11.484;2023-08-08T10:37:13;20.60;75.00
43665;DHT22;29263;48.172;11.484;2023-08-08T10:40:08;20.60;76.00
43665;DHT22;29263;48.172;11.484;2023-08-08T10:42:45;20.50;77.20
43665;DHT22;29263;48.172;11.484;2023-08-08T10:45:13;20.40;73.80
43665;DHT22;29263;48.172;11.484;2023-08-08T10:47:39;20.30;73.70
43665;DHT22;29263;48.172;11.484;2023-08-08T10:50:06;20.20;73.90
43665;DHT22;29263;48.172;11.484;2023-08-08T10:52:37;20.20;74.10
43665;DHT22;29263;48.172;11.484;2023-08-08T10:55:03;20.20;74.20
43665;DHT22;29263;48.172;11.484;2023-08-08T10:57:30;20.20;73.10
43665;DHT22;29263;48.172;11.484;2023-08-08T11:00:16;20.20;73.20
43665;DHT22;29263;48.172;11.484;2023-08-08T11:02:42;20.00;73.20
43665;DHT22;29263;48.172;11.484;2023-08-08T11:05:09;19.90;73.40
43665;DHT22;29263;48.172;11.484;2023-08-08T11:07:35;19.90;75.40
43665;DHT22;29263;48.172;11.484;2023-08-08T11:10:03;20.10;74.60
43665;DHT22;29263;48.172;11.484;2023-08-08T11:12:28;20.20;71.00
43665;DHT22;29263;48.172;11.484;2023-08-08T11:14:55;20.20;74.20
43665;DHT22;29263;48.172;11.484;2023-08-08T11:17:20;20.40;71.00
43665;DHT22;29263;48.172;11.484;2023-08-08T11:19:46;20.50;69.30
43665;DHT22;29263;48.172;11.484;2023-08-08T11:22:11;20.50;69.20
43665;DHT22;29263;48.172;11.484;2023-08-08T11:24:37;20.50;69.40
43665;DHT22;29263;48.172;11.484;2023-08-08T11:27:03;20.50;70.60
43665;DHT22;29263;48.172;11.484;2023-08-08T11:29:28;20.60;70.20
43665;DHT22;29263;48.172;11.484;2023-08-08T11:31:57;20.70;71.90
43665;DHT22;29263;48.172;11.484;2023-08-08T11:34:22;20.60;71.80
43665;DHT22;29263;48.172;11.484;2023-08-08T11:36:48;20.50;71.60
43665;DHT22;29263;48.172;11.484;2023-08-08T11:39:14;20.40;69.20
43665;DHT22;29263;48.172;11.484;2023-08-08T11:41:41;20.50;69.40
43665;DHT22;29263;48.172;11.484;2023-08-08T11:44:07;20.60;67.20
43665;DHT22;29263;48.172;11.484;2023-08-08T11:46:33;20.80;68.20
43665;DHT22;29263;48.172;11.484;2023-08-08T11:49:03;21.10;67.70
43665;DHT22;29263;48.172;11.484;2023-08-08T11:51:29;21.20;68.10
43665;DHT22;29263;48.172;11.484;2023-08-08T11:53:54;21.20;67.20
43665;DHT22;29263;48.172;11.484;2023-08-08T11:56:21;21.10;66.40
43665;DHT22;29263;48.172;11.484;2023-08-08T11:58:51;21.30;66.40
43665;DHT22;29263;48.172;11.484;2023-08-08T12:01:20;21.60;66.80
43665;DHT22;29263;48.172;11.484;2023-08-08T12:03:46;21.60;65.30
43665;DHT22;29263;48.172;11.484;2023-08-08T12:06:15;21.60;66.70
43665;DHT22;29263;48.172;11.484;2023-08-08T12:08:45;21.60;64.60
43665;DHT22;29263;48.172;11.484;2023-08-08T12:11:10;21.30;65.00
43665;DHT22;29263;48.172;11.484;2023-08-08T12:13:38;21.10;66.10
43665;DHT22;29263;48.172;11.484;2023-08-08T12:16:06;21.00;64.90
43665;DHT22;29263;48.172;11.484;2023-08-08T12:18:32;21.00;64.30
43665;DHT22;29263;48.172;11.484;2023-08-08T12:20:58;20.90;65.80
43665;DHT22;29263;48.172;11.484;2023-08-08T12:23:25;21.00;64.20
43665;DHT22;29263;48.172;11.484;2023-08-08T12:25:52;21.20;60.90
43665;DHT22;29263;48.172;11.484;2023-08-08T12:28:18;21.40;60.60
43665;DHT22;29263;48.172;11.484;2023-08-08T12:30:44;21.30;60.30
43665;DHT22;29263;48.172;11.484;2023-08-08T12:33:10;21.30;59.40
43665;DHT22;29263;48.172;11.484;2023-08-08T12:35:35;21.40;61.20
43665;DHT22;29263;48.172;11.484;2023-08-08T12:38:01;21.50;59.60
43665;DHT22;29263;48.172;11.484;2023-08-08T12:40:28;21.40;59.60
43665;DHT22;29263;48.172;11.484;2023-08-08T12:42:54;21.50;62.10
43665;DHT22;29263;48.172;11.484;2023-08-08T12:45:19;21.60;60.00
43665;DHT22;29263;48.172;11.484;2023-08-08T12:47:45;21.80;64.00
43665;DHT22;29263;48.172;11.484;2023-08-08T12:50:10;21.90;61.10
43665;DHT22;29263;48.172;11.484;2023-08-08T12:52:36;22.00;65.00
43665;DHT22;29263;48.172;11.484;2023-08-08T12:55:04;22.20;61.20
43665;DHT22;29263;48.172;11.484;2023-08-08T12:57:30;22.30;62.70
43665;DHT22;29263;48.172;11.484;2023-08-08T12:59:56;22.20;60.40
43665;DHT22;29263;48.172;11.484;2023-08-08T13:02:21;22.10;62.30
43665;DHT22;29263;48.172;11.484;2023-08-08T13:04:47;22.00;62.30
43665;DHT22;29263;48.172;11.484;2023-08-08T13:07:12;22.10;59.30
43665;DHT22;29263;48.172;11.484;2023-08-08T13:09:38;21.90;59.80
43665;DHT22;29263;48.172;11.484;2023-08-08T13:12:04;21.70;59.40
43665;DHT22;29263;48.172;11.484;2023-08-08T13:14:30;21.80;61.50
43665;DHT22;29263;48.172;11.484;2023-08-08T13:16:56;21.80;60.60
43665;DHT22;29263;48.172;11.484;2023-08-08T13:19:21;22.00;61.30
43665;DHT22;29263;48.172;11.484;2023-08-08T13:21:51;22.10;60.00
43665;DHT22;29263;48.172;11.484;2023-08-08T13:24:16;22.20;59.90
43665;DHT22;29263;48.172;11.484;2023-08-08T13:26:42;22.30;58.70
43665;DHT22;29263;48.172;11.484;2023-08-08T13:29:08;22.20;59.00
43665;DHT22;29263;48.172;11.484;2023-08-08T13:31:34;22.20;58.10
43665;DHT22;29263;48.172;11.484;2023-08-08T13:33:59;22.20;60.60
43665;DHT22;29263;48.172;11.484;2023-08-08T13:36:25;22.20;60.80
43665;DHT22;29263;48.172;11.484;2023-08-08T13:38:51;22.30;59.40
43665;DHT22;29263;48.172;11.484;2023-08-08T13:41:16;22.30;59.10
43665;DHT22;29263;48.172;11.484;2023-08-08T13:43:42;22.20;59.80
43665;DHT22;29263;48.172;11.484;2023-08-08T13:46:07;22.10;60.00
43665;DHT22;29263;48.172;11.484;2023-08-08T13:48:35;22.20;59.70
43665;DHT22;29263;48.172;11.484;2023-08-08T13:51:01;22.30;58.50
43665;DHT22;29263;48.172;11.484;2023-08-08T13:53:28;22.30;58.90
43665;DHT22;29263;48.172;11.484;2023-08-08T13:55:54;22.30;59.30
43665;DHT22;29263;48.172;11.484;2023-08-08T13:58:20;22.40;61.50
43665;DHT22;29263;48.172;11.484;2023-08-08T14:00:48;22.40;57.50
43665;DHT22;29263;48.172;11.484;2023-08-08T14:03:14;22.40;57.90
43665;DHT22;29263;48.172;11.484;2023-08-08T14:05:39;22.50;58.70
43665;DHT22;29263;48.172;11.484;2023-08-08T14:08:05;22.40;58.90
43665;DHT22;29263;48.172;11.484;2023-08-08T14:10:31;22.40;60.50
43665;DHT22;29263;48.172;11.484;2023-08-08T14:12:57;22.40;58.50
43665;DHT22;29263;48.172;11.484;2023-08-08T14:15:22;22.40;58.60
43665;DHT22;29263;48.172;11.484;2023-08-08T14:17:48;22.40;58.70
43665;DHT22;29263;48.172;11.484;2023-08-08T14:20:13;22.40;59.20
43665;DHT22;29263;48.172;11.484;2023-08-08T14:22:39;22.30;58.20
43665;DHT22;29263;48.172;11.484;2023-08-08T14:25:05;22.20;59.60
43665;DHT22;29263;48.172;11.484;2023-08-08T14:27:34;22.20;60.80
43665;DHT22;29263;48.172;11.484;2023-08-08T14:29:59;22.10;60.70
43665;DHT22;29263;48.172;11.484;2023-08-08T14:32:25;22.00;59.50
43665;DHT22;29263;48.172;11.484;2023-08-08T14:34:51;21.80;61.00
43665;DHT22;29263;48.172;11.484;2023-08-08T14:37:17;21.90;62.30
43665;DHT22;29263;48.172;11.484;2023-08-08T14:39:42;22.00;60.50
43665;DHT22;29263;48.172;11.484;2023-08-08T14:42:08;22.10;61.40
43665;DHT22;29263;48.172;11.484;2023-08-08T14:44:33;22.10;59.80
43665;DHT22;29263;48.172;11.484;2023-08-08T14:46:59;22.20;59.50
43665;DHT22;29263;48.172;11.484;2023-08-08T14:49:24;22.30;60.30
43665;DHT22;29263;48.172;11.484;2023-08-08T14:51:51;22.60;59.40
43665;DHT22;29263;48.172;11.484;2023-08-08T14:54:17;22.70;58.10
43665;DHT22;29263;48.172;11.484;2023-08-08T14:56:42;22.50;60.60
43665;DHT22;29263;48.172;11.484;2023-08-08T14:59:08;22.30;59.60
43665;DHT22;29263;48.172;11.484;2023-08-08T15:01:34;22.00;60.50
43665;DHT22;29263;48.172;11.484;2023-08-08T15:03:59;22.30;60.80
43665;DHT22;29263;48.172;11.484;2023-08-08T15:06:25;22.50;60.60
43665;DHT22;29263;48.172;11.484;2023-08-08T15:08:51;22.60;59.60
43665;DHT22;29263;48.172;11.484;2023-08-08T15:11:16;22.50;60.30